Time;durP1;ratioP1;P1;durP2;ratioP2;P2;SDS_P1;SDS_P2;PMS_P1;PMS_P2;Temp;Humidity;BMP_temperature;BMP_pressure;BME280_temperature;BME280_humidity;BME280_pressure;Samples;Min_cycle;Max_cycle;Signal;HPM_P1;HPM_P2
2022/01/30 01:29:08;;;;;;;18.08;2.92;;;;;;;;;;5010994;28;20058;-85
2022/01/30 02:40:09;;;;;;;25.73;2.78;;;;;;;;;;5000567;28;20077;-84
2022/01/30 02:44:13;;;;;;;24.98;2.70;;;;;;;;;;4994369;28;20054;-84
2022/01/30 04:39:38;;;;;;;21.27;2.72;;;;;;;;;;5029580;22;20077;-85
2022/01/30 04:59:09;;;;;;;20.50;3.03;;;;;;;;;;4971256;28;20058;-85
2022/01/30 05:08:23;;;;;;;21.10;2.65;;;;;;;;;;4978548;28;20054;-86
2022/01/30 05:15:17;;;;;;;27.38;3.42;;;;;;;;;;5002659;23;20056;-85
2022/01/30 05:18:06;;;;;;;13.68;3.13;;;;;;;;;;4978535;28;20053;-85
2022/01/30 05:25:24;;;;;;;23.45;3.05;;;;;;;;;;4994078;28;20417;-85
2022/01/30 05:28:06;;;;;;;26.83;4.35;;;;;;;;;;4960339;28;20084;-85
2022/01/30 05:35:15;;;;;;;16.30;2.75;;;;;;;;;;5001567;28;20045;-85
2022/01/30 05:38:05;;;;;;;33.83;4.03;;;;;;;;;;4963978;28;20401;-85
2022/01/30 05:48:14;;;;;;;21.65;2.25;;;;;;;;;;5014003;28;20076;-85
2022/01/30 05:55:23;;;;;;;29.42;3.35;;;;;;;;;;5033550;28;20041;-85
2022/01/30 05:57:51;;;;;;;19.13;2.53;;;;;;;;;;4999640;28;20076;-85
2022/01/30 06:00:23;;;;;;;21.98;3.53;;;;;;;;;;5016474;28;20045;-85
2022/01/30 06:02:59;;;;;;;24.80;2.95;;;;;;;;;;4984647;28;20087;-85
2022/01/30 06:05:27;;;;;;;19.17;2.78;;;;;;;;;;5018087;28;20053;-85
2022/01/30 06:07:57;;;;;;;18.45;3.38;;;;;;;;;;5023751;28;21029;-85
2022/01/30 06:10:27;;;;;;;14.85;2.78;;;;;;;;;;5038413;28;20080;-85
2022/01/30 06:12:56;;;;;;;23.17;3.75;;;;;;;;;;5004415;28;20068;-86
2022/01/30 06:15:26;;;;;;;25.63;3.60;;;;;;;;;;5001070;28;20056;-85
2022/01/30 06:18:03;;;;;;;23.92;4.05;;;;;;;;;;5015251;28;20610;-85
2022/01/30 06:25:15;;;;;;;29.52;3.38;;;;;;;;;;5018639;28;20045;-85
2022/01/30 06:28:01;;;;;;;19.65;3.58;;;;;;;;;;5017072;28;20046;-85
2022/01/30 06:35:08;;;;;;;;;;;;;;;;;;5018482;28;19923;-85
2022/01/30 06:38:16;;;;;;;16.10;2.08;;;;;;;;;;4970746;28;19932;-85
2022/01/30 06:45:30;;;;;;;24.60;2.88;;;;;;;;;;4979098;28;20691;-85
2022/01/30 06:48:33;;;;;;;16.05;3.17;;;;;;;;;;4977472;28;20938;-85
2022/01/30 06:55:42;;;;;;;13.43;3.17;;;;;;;;;;4995993;28;21436;-85
2022/01/30 06:58:45;;;;;;;26.92;3.63;;;;;;;;;;4980595;28;20058;-85
2022/01/30 07:05:39;;;;;;;32.30;3.55;;;;;;;;;;4997572;28;21052;-85
2022/01/30 07:08:13;;;;;;;18.23;3.00;;;;;;;;;;4981066;28;20157;-85
2022/01/30 07:10:42;;;;;;;18.95;2.72;;;;;;;;;;5017493;28;20417;-85
2022/01/30 07:13:12;;;;;;;22.25;3.80;;;;;;;;;;4988065;28;20112;-85
2022/01/30 07:15:42;;;;;;;16.67;3.08;;;;;;;;;;5018923;28;20088;-85
2022/01/30 07:18:26;;;;;;;21.13;2.95;;;;;;;;;;4994771;28;20136;-85
2022/01/30 07:28:16;;;;;;;23.98;3.28;;;;;;;;;;4957681;28;20059;-85
2022/01/30 07:30:45;;;;;;;35.80;4.32;;;;;;;;;;4925785;28;20611;-85
2022/01/30 07:33:13;;;;;;;29.15;4.35;;;;;;;;;;4929459;28;20081;-85
2022/01/30 07:35:42;;;;;;;40.00;7.25;;;;;;;;;;4959756;28;20058;-85
2022/01/30 07:38:12;;;;;;;22.00;3.65;;;;;;;;;;4909018;28;20560;-85
2022/01/30 07:40:42;;;;;;;37.13;4.18;;;;;;;;;;4943931;28;20061;-85
2022/01/30 07:43:31;;;;;;;35.17;4.78;;;;;;;;;;4954320;28;20443;-85
2022/01/30 07:46:04;;;;;;;23.95;3.85;;;;;;;;;;4941140;28;20149;-85
2022/01/30 07:48:33;;;;;;;27.67;3.38;;;;;;;;;;4927125;28;20047;-85
2022/01/30 07:55:25;;;;;;;25.48;3.95;;;;;;;;;;4956096;28;20041;-85
2022/01/30 07:57:55;;;;;;;31.30;3.55;;;;;;;;;;4958462;28;20059;-85
2022/01/30 08:00:24;;;;;;;28.98;3.55;;;;;;;;;;4942153;28;20059;-85
2022/01/30 08:03:05;;;;;;;34.85;4.05;;;;;;;;;;4941762;28;20078;-85
2022/01/30 08:05:37;;;;;;;29.17;4.60;;;;;;;;;;4958988;28;20058;-85
2022/01/30 08:08:06;;;;;;;36.13;4.80;;;;;;;;;;4955765;28;20050;-85
2022/01/30 08:10:34;;;;;;;40.97;4.35;;;;;;;;;;4957960;28;20057;-85
2022/01/30 08:13:02;;;;;;;26.17;4.40;;;;;;;;;;4957782;28;20521;-85
2022/01/30 08:15:29;;;;;;;27.23;3.70;;;;;;;;;;4956088;28;20158;-85
2022/01/30 08:17:57;;;;;;;25.40;4.30;;;;;;;;;;4943167;28;20050;-85
2022/01/30 08:20:27;;;;;;;29.63;3.30;;;;;;;;;;4954783;28;20129;-85
2022/01/30 08:22:56;;;;;;;26.05;3.75;;;;;;;;;;4944079;28;20062;-85
2022/01/30 08:25:25;;;;;;;28.02;3.95;;;;;;;;;;4959150;28;20129;-85
2022/01/30 08:27:54;;;;;;;33.45;4.18;;;;;;;;;;4939842;28;20531;-85
2022/01/30 08:30:22;;;;;;;27.30;4.50;;;;;;;;;;4942417;28;20054;-85
2022/01/30 08:32:50;;;;;;;37.08;3.90;;;;;;;;;;4954918;28;20090;-85
2022/01/30 08:35:20;;;;;;;24.60;3.67;;;;;;;;;;4959618;28;21808;-85
2022/01/30 08:37:49;;;;;;;36.47;4.53;;;;;;;;;;4952838;28;20933;-85
2022/01/30 08:40:19;;;;;;;33.78;4.47;;;;;;;;;;4957244;28;20055;-85
2022/01/30 08:43:13;;;;;;;22.77;3.67;;;;;;;;;;4959254;28;20050;-85
2022/01/30 08:45:41;;;;;;;24.75;3.80;;;;;;;;;;4943205;28;20059;-85
2022/01/30 08:48:09;;;;;;;25.90;4.28;;;;;;;;;;4942925;28;21016;-85
2022/01/30 08:50:38;;;;;;;21.13;2.90;;;;;;;;;;4931422;28;20063;-85
2022/01/30 08:53:05;;;;;;;23.95;4.07;;;;;;;;;;4960813;28;20055;-85
2022/01/30 08:55:33;;;;;;;30.33;4.50;;;;;;;;;;4960129;28;20568;-85
2022/01/30 08:58:07;;;;;;;30.10;3.95;;;;;;;;;;4955717;28;20067;-85
2022/01/30 09:00:40;;;;;;;29.48;4.07;;;;;;;;;;4958309;28;20834;-85
2022/01/30 09:03:08;;;;;;;26.50;4.00;;;;;;;;;;4955737;28;20068;-85
2022/01/30 09:05:36;;;;;;;25.85;3.13;;;;;;;;;;4941961;28;20065;-85
2022/01/30 09:08:04;;;;;;;24.05;3.58;;;;;;;;;;4959824;28;20109;-85
2022/01/30 09:10:32;;;;;;;22.83;3.17;;;;;;;;;;4961634;28;20054;-85
2022/01/30 09:13:02;;;;;;;24.63;4.00;;;;;;;;;;4960014;28;20150;-84
2022/01/30 09:15:29;;;;;;;33.08;4.07;;;;;;;;;;4962338;28;20063;-84
2022/01/30 09:17:58;;;;;;;24.17;3.53;;;;;;;;;;4962256;28;20395;-85
2022/01/30 09:20:28;;;;;;;32.03;4.60;;;;;;;;;;4954962;28;20058;-85
2022/01/30 09:22:55;;;;;;;25.27;3.88;;;;;;;;;;4957480;28;20415;-84
2022/01/30 09:25:23;;;;;;;29.58;4.03;;;;;;;;;;4942390;28;20089;-84
2022/01/30 09:27:51;;;;;;;21.92;3.58;;;;;;;;;;4958247;28;20062;-84
2022/01/30 09:30:19;;;;;;;18.52;3.17;;;;;;;;;;4959660;28;20058;-85
2022/01/30 09:32:47;;;;;;;21.83;5.05;;;;;;;;;;4942947;28;20059;-84
2022/01/30 09:35:15;;;;;;;32.50;4.28;;;;;;;;;;4944406;28;20063;-84
2022/01/30 09:37:43;;;;;;;29.67;3.63;;;;;;;;;;4957794;28;20630;-85
2022/01/30 09:40:13;;;;;;;24.67;3.33;;;;;;;;;;4962122;28;20054;-85
2022/01/30 09:42:56;;;;;;;23.75;3.90;;;;;;;;;;4962200;28;20054;-84
2022/01/30 09:45:24;;;;;;;27.25;3.80;;;;;;;;;;4865874;29;20685;-84
2022/01/30 09:47:52;;;;;;;30.05;4.97;;;;;;;;;;4885223;29;20130;-84
2022/01/30 09:50:22;;;;;;;27.27;3.65;;;;;;;;;;4901752;29;20052;-84
2022/01/30 09:52:59;;;;;;;21.45;4.05;;;;;;;;;;4882153;29;20056;-85
2022/01/30 09:55:27;;;;;;;29.20;4.28;;;;;;;;;;4869794;29;20074;-85
2022/01/30 09:57:55;;;;;;;21.58;3.42;;;;;;;;;;4900098;29;20091;-85
2022/01/30 10:00:42;;;;;;;29.75;4.53;;;;;;;;;;4890091;29;21802;-87
2022/01/30 10:03:35;;;;;;;21.40;3.97;;;;;;;;;;4846970;29;20063;-85
2022/01/30 10:06:21;;;;;;;20.08;3.08;;;;;;;;;;4866007;29;20178;-85
2022/01/30 10:08:54;;;;;;;19.30;3.20;;;;;;;;;;4890406;28;20063;-85
2022/01/30 10:15:56;;;;;;;29.35;3.40;;;;;;;;;;4951279;28;20056;-85
2022/01/30 10:18:31;;;;;;;27.90;3.70;;;;;;;;;;4958925;28;20059;-85
2022/01/30 10:25:20;;;;;;;29.55;3.85;;;;;;;;;;5025912;23;20056;-85
2022/01/30 10:27:48;;;;;;;27.88;3.75;;;;;;;;;;4993328;28;20226;-85
2022/01/30 10:30:21;;;;;;;33.28;4.60;;;;;;;;;;4997861;28;20612;-85
2022/01/30 10:33:26;;;;;;;25.42;3.60;;;;;;;;;;5017692;28;20049;-86
2022/01/30 10:36:03;;;;;;;31.73;4.05;;;;;;;;;;4935192;28;20137;-84
2022/01/30 10:38:36;;;;;;;21.08;3.63;;;;;;;;;;4970582;28;20117;-85
2022/01/30 10:45:02;;;;;;;30.63;4.13;;;;;;;;;;4984993;28;20128;-83
2022/01/30 10:47:32;;;;;;;23.25;3.70;;;;;;;;;;4989593;28;20080;-83
2022/01/30 10:49:59;;;;;;;22.35;3.92;;;;;;;;;;4987570;28;20050;-84
2022/01/30 10:52:28;;;;;;;20.85;3.05;;;;;;;;;;4987348;28;20050;-82
2022/01/30 10:55:04;;;;;;;22.95;4.50;;;;;;;;;;4990829;28;20459;-82
2022/01/30 10:57:39;;;;;;;30.00;4.07;;;;;;;;;;4956382;28;20054;-84
2022/01/30 11:00:08;;;;;;;19.98;3.15;;;;;;;;;;4969605;28;20499;-84
2022/01/30 11:02:38;;;;;;;27.17;3.55;;;;;;;;;;4971715;28;20131;-82
2022/01/30 11:05:12;;;;;;;25.67;3.70;;;;;;;;;;4970459;28;20070;-83
2022/01/30 11:07:39;;;;;;;34.78;3.47;;;;;;;;;;4986076;28;20125;-83
2022/01/30 11:10:20;;;;;;;27.75;4.13;;;;;;;;;;4985457;28;20088;-81
2022/01/30 11:13:07;;;;;;;18.48;3.58;;;;;;;;;;4986033;28;20133;-82
2022/01/30 11:15:38;;;;;;;23.98;3.97;;;;;;;;;;4967105;28;20062;-82
2022/01/30 11:18:05;;;;;;;17.73;3.08;;;;;;;;;;4988441;28;20050;-83
2022/01/30 11:20:34;;;;;;;22.65;2.97;;;;;;;;;;4997255;28;20044;-83
2022/01/30 11:23:08;;;;;;;25.50;3.03;;;;;;;;;;5003646;28;20078;-84
2022/01/30 11:25:38;;;;;;;29.30;4.15;;;;;;;;;;4974650;28;20054;-83
2022/01/30 11:28:06;;;;;;;34.92;5.03;;;;;;;;;;4968325;28;20057;-83
2022/01/30 11:30:50;;;;;;;45.47;3.92;;;;;;;;;;4989632;28;20050;-83
2022/01/30 11:33:17;;;;;;;23.25;3.97;;;;;;;;;;4989188;28;20078;-84
2022/01/30 11:35:46;;;;;;;24.63;4.40;;;;;;;;;;4987397;28;20503;-83
2022/01/30 11:38:14;;;;;;;30.80;4.80;;;;;;;;;;4989971;28;20065;-82
2022/01/30 11:40:41;;;;;;;36.33;5.28;;;;;;;;;;4970847;28;20050;-83
2022/01/30 11:43:09;;;;;;;24.52;3.45;;;;;;;;;;4987882;28;20045;-82
2022/01/30 11:45:37;;;;;;;19.77;3.15;;;;;;;;;;4985704;28;20113;-83
2022/01/30 11:48:14;;;;;;;24.20;3.55;;;;;;;;;;4970820;28;20078;-82
2022/01/30 11:50:42;;;;;;;27.20;3.72;;;;;;;;;;4988470;28;20419;-81
2022/01/30 11:53:11;;;;;;;17.92;3.47;;;;;;;;;;4966296;28;20149;-82
2022/01/30 11:55:48;;;;;;;16.02;2.83;;;;;;;;;;4985884;28;20053;-83
2022/01/30 11:58:31;;;;;;;23.38;3.08;;;;;;;;;;4971997;28;20057;-83
2022/01/30 12:01:26;;;;;;;24.23;3.08;;;;;;;;;;4987031;28;20046;-83
2022/01/30 12:03:59;;;;;;;16.25;3.03;;;;;;;;;;4988634;28;20102;-83
2022/01/30 12:06:40;;;;;;;32.78;4.13;;;;;;;;;;4985975;28;20078;-84
2022/01/30 12:09:16;;;;;;;23.15;3.05;;;;;;;;;;4985204;28;20063;-81
2022/01/30 12:11:47;;;;;;;24.10;3.25;;;;;;;;;;4988214;28;20500;-81
2022/01/30 12:14:21;;;;;;;19.50;2.65;;;;;;;;;;4986508;28;20105;-81
2022/01/30 12:16:56;;;;;;;25.73;3.97;;;;;;;;;;4983100;28;20041;-81
2022/01/30 12:19:42;;;;;;;19.75;3.42;;;;;;;;;;4972986;28;20428;-81
2022/01/30 12:22:15;;;;;;;23.08;3.15;;;;;;;;;;4987771;28;20101;-80
2022/01/30 12:24:45;;;;;;;25.58;3.33;;;;;;;;;;4966177;28;20450;-81
2022/01/30 12:27:13;;;;;;;24.13;3.75;;;;;;;;;;4987225;28;20046;-80
2022/01/30 12:29:52;;;;;;;34.22;3.92;;;;;;;;;;4987487;28;20064;-81
2022/01/30 12:32:22;;;;;;;16.45;3.40;;;;;;;;;;4984809;28;20415;-81
2022/01/30 12:34:55;;;;;;;26.50;3.05;;;;;;;;;;4985462;28;20046;-80
2022/01/30 12:37:35;;;;;;;22.55;3.67;;;;;;;;;;4988680;28;20057;-80
2022/01/30 12:40:09;;;;;;;23.98;3.28;;;;;;;;;;4988953;28;20116;-81
2022/01/30 12:42:38;;;;;;;24.98;3.47;;;;;;;;;;4983436;28;20037;-83
2022/01/30 12:45:08;;;;;;;29.38;3.25;;;;;;;;;;4987598;28;20064;-82
2022/01/30 12:47:50;;;;;;;18.50;3.22;;;;;;;;;;4985170;28;20108;-80
2022/01/30 12:50:18;;;;;;;21.33;3.55;;;;;;;;;;4964275;28;20062;-80
2022/01/30 12:52:48;;;;;;;20.45;3.40;;;;;;;;;;4971794;28;20057;-81
2022/01/30 12:55:17;;;;;;;27.65;3.58;;;;;;;;;;4971498;28;20173;-81
2022/01/30 12:57:47;;;;;;;16.48;2.88;;;;;;;;;;4985330;28;20101;-80
2022/01/30 13:00:17;;;;;;;17.95;2.90;;;;;;;;;;4983635;28;20046;-83
2022/01/30 13:02:55;;;;;;;26.30;3.65;;;;;;;;;;4986712;28;20431;-82
2022/01/30 13:05:25;;;;;;;16.65;3.33;;;;;;;;;;4981312;28;20054;-82
2022/01/30 13:07:56;;;;;;;20.60;3.92;;;;;;;;;;4988671;28;20062;-84
2022/01/30 13:10:25;;;;;;;20.00;3.97;;;;;;;;;;4986572;28;20050;-84
2022/01/30 13:12:57;;;;;;;15.27;2.88;;;;;;;;;;4984566;28;20035;-84
2022/01/30 13:15:27;;;;;;;20.02;2.92;;;;;;;;;;4946051;28;20054;-84
2022/01/30 13:18:01;;;;;;;16.60;2.80;;;;;;;;;;4986329;28;20046;-84
2022/01/30 13:20:29;;;;;;;24.42;2.92;;;;;;;;;;4986839;28;20145;-84
2022/01/30 13:22:57;;;;;;;16.77;3.35;;;;;;;;;;4984791;28;20039;-84
2022/01/30 13:25:25;;;;;;;14.73;2.25;;;;;;;;;;4985508;28;20066;-84
2022/01/30 13:27:59;;;;;;;17.10;3.33;;;;;;;;;;4989542;28;20043;-84
2022/01/30 13:30:30;;;;;;;18.38;2.65;;;;;;;;;;4993680;28;20077;-84
2022/01/30 13:32:57;;;;;;;29.42;3.15;;;;;;;;;;5012145;28;20035;-84
2022/01/30 13:35:30;;;;;;;14.15;3.20;;;;;;;;;;5010177;28;20050;-84
2022/01/30 13:38:01;;;;;;;20.52;3.22;;;;;;;;;;5010309;28;20082;-83
2022/01/30 13:40:53;;;;;;;20.65;3.15;;;;;;;;;;4989980;28;20023;-84
2022/01/30 13:43:26;;;;;;;21.98;2.60;;;;;;;;;;4965761;28;20050;-84
2022/01/30 13:48:22;;;;;;;20.85;3.33;;;;;;;;;;4981831;28;20057;-84
2022/01/30 13:51:08;;;;;;;21.85;2.80;;;;;;;;;;4983398;28;20050;-84
2022/01/30 13:53:40;;;;;;;17.00;2.72;;;;;;;;;;4984960;28;20058;-84
2022/01/30 13:56:11;;;;;;;21.95;3.00;;;;;;;;;;4986447;28;20060;-84
2022/01/30 13:58:39;;;;;;;9.60;2.00;;;;;;;;;;4984821;28;20039;-84
2022/01/30 14:01:08;;;;;;;13.55;2.40;;;;;;;;;;4989287;28;20046;-82
2022/01/30 14:03:37;;;;;;;18.08;2.25;;;;;;;;;;4988888;28;20142;-84
2022/01/30 14:06:16;;;;;;;14.45;2.72;;;;;;;;;;4983346;28;20055;-84
2022/01/30 14:08:52;;;;;;;22.83;3.00;;;;;;;;;;4985585;28;20058;-84
2022/01/30 14:11:36;;;;;;;18.90;3.25;;;;;;;;;;4970539;28;20407;-80
2022/01/30 14:14:13;;;;;;;13.95;2.05;;;;;;;;;;4983404;28;20085;-80
2022/01/30 14:17:01;;;;;;;14.77;2.60;;;;;;;;;;4985884;28;20062;-81
2022/01/30 14:19:41;;;;;;;15.85;2.08;;;;;;;;;;4987796;28;20420;-80
2022/01/30 14:22:25;;;;;;;22.10;2.17;;;;;;;;;;4968433;28;20046;-80
2022/01/30 14:24:57;;;;;;;16.95;3.58;;;;;;;;;;4987459;28;21026;-80
2022/01/30 14:27:26;;;;;;;17.88;3.10;;;;;;;;;;4955747;28;20064;-80
2022/01/30 14:29:56;;;;;;;21.13;3.13;;;;;;;;;;4964569;28;20101;-79
2022/01/30 14:32:30;;;;;;;16.48;2.38;;;;;;;;;;4985372;28;20039;-80
2022/01/30 14:34:57;;;;;;;13.98;2.45;;;;;;;;;;4985347;28;20046;-79
2022/01/30 14:37:26;;;;;;;13.48;2.47;;;;;;;;;;4982355;28;20057;-79
2022/01/30 14:40:03;;;;;;;13.10;2.55;;;;;;;;;;4983283;28;20050;-80
2022/01/30 14:42:31;;;;;;;20.83;2.85;;;;;;;;;;4989355;28;20507;-80
2022/01/30 14:44:59;;;;;;;15.80;2.08;;;;;;;;;;4988193;28;20090;-80
2022/01/30 14:47:29;;;;;;;17.70;2.83;;;;;;;;;;4985158;28;20057;-81
2022/01/30 14:49:57;;;;;;;21.95;2.85;;;;;;;;;;4981806;28;20042;-79
2022/01/30 14:52:25;;;;;;;18.38;3.40;;;;;;;;;;4986192;28;20062;-80
2022/01/30 14:54:53;;;;;;;17.80;2.63;;;;;;;;;;4965953;28;20503;-80
2022/01/30 14:57:24;;;;;;;18.27;2.65;;;;;;;;;;4982505;28;20060;-79
2022/01/30 14:59:51;;;;;;;13.43;2.40;;;;;;;;;;4986229;28;20043;-80
2022/01/30 15:02:19;;;;;;;16.20;2.03;;;;;;;;;;4985035;28;20103;-79
2022/01/30 15:04:47;;;;;;;17.80;2.95;;;;;;;;;;4981091;28;20105;-79
2022/01/30 15:07:15;;;;;;;15.18;2.35;;;;;;;;;;4968790;28;20081;-80
2022/01/30 15:09:43;;;;;;;20.08;3.08;;;;;;;;;;4996647;28;20054;-80
2022/01/30 15:12:14;;;;;;;15.50;1.80;;;;;;;;;;4986584;28;20101;-79
2022/01/30 15:14:49;;;;;;;11.02;1.88;;;;;;;;;;4984166;28;20046;-79
2022/01/30 15:17:32;;;;;;;16.67;1.98;;;;;;;;;;4986130;28;20078;-81
2022/01/30 15:20:12;;;;;;;17.15;2.30;;;;;;;;;;4983517;28;20613;-80
2022/01/30 15:22:41;;;;;;;14.27;2.15;;;;;;;;;;4982914;28;20062;-79
2022/01/30 15:25:10;;;;;;;14.25;2.00;;;;;;;;;;4984303;28;20141;-80
2022/01/30 15:27:39;;;;;;;15.27;2.40;;;;;;;;;;4985197;28;20046;-79
2022/01/30 15:30:09;;;;;;;12.48;2.17;;;;;;;;;;4984402;28;20101;-79
2022/01/30 15:32:37;;;;;;;15.18;2.42;;;;;;;;;;4963241;28;20436;-80
2022/01/30 15:35:07;;;;;;;16.10;2.53;;;;;;;;;;4986453;28;20054;-79
2022/01/30 15:37:36;;;;;;;17.90;2.47;;;;;;;;;;4965783;28;20153;-80
2022/01/30 15:40:04;;;;;;;11.65;2.53;;;;;;;;;;4981535;28;20061;-79
2022/01/30 15:42:32;;;;;;;13.38;2.10;;;;;;;;;;4984868;28;20133;-80
2022/01/30 15:50:15;;;;;;;13.55;2.80;;;;;;;;;;4986839;28;20058;-80
2022/01/30 15:52:44;;;;;;;9.60;2.25;;;;;;;;;;4986559;28;20034;-79
2022/01/30 15:55:11;;;;;;;13.90;2.28;;;;;;;;;;4983657;28;20114;-80
2022/01/30 15:57:39;;;;;;;13.65;2.38;;;;;;;;;;4983356;28;20042;-81
2022/01/30 16:00:10;;;;;;;19.48;2.40;;;;;;;;;;4986542;28;20051;-80
2022/01/30 16:02:37;;;;;;;14.65;2.50;;;;;;;;;;4985515;28;20468;-81
2022/01/30 16:05:05;;;;;;;16.90;2.65;;;;;;;;;;4961477;28;20085;-79
2022/01/30 16:07:33;;;;;;;16.30;2.55;;;;;;;;;;4987498;28;20050;-80
2022/01/30 16:10:09;;;;;;;15.32;2.80;;;;;;;;;;4986028;28;20568;-80
2022/01/30 16:18:01;;;;;;;21.05;2.65;;;;;;;;;;4988533;28;20045;-80
2022/01/30 16:20:29;;;;;;;22.90;2.80;;;;;;;;;;4958479;28;20166;-80
2022/01/30 16:23:03;;;;;;;22.38;2.72;;;;;;;;;;4964816;28;20633;-80
2022/01/30 16:25:33;;;;;;;20.80;3.05;;;;;;;;;;4985523;28;20082;-80
2022/01/30 16:28:02;;;;;;;14.23;2.00;;;;;;;;;;4987358;28;20046;-80
2022/01/30 16:30:29;;;;;;;13.75;2.40;;;;;;;;;;4980733;28;20981;-79
2022/01/30 16:32:57;;;;;;;19.77;2.60;;;;;;;;;;4984984;28;20054;-80
2022/01/30 16:35:25;;;;;;;21.90;2.47;;;;;;;;;;4986414;28;20141;-81
2022/01/30 16:37:54;;;;;;;19.20;2.65;;;;;;;;;;4981927;28;20050;-79
2022/01/30 16:40:21;;;;;;;22.02;2.38;;;;;;;;;;4984456;28;20082;-79
2022/01/30 16:42:49;;;;;;;18.33;2.13;;;;;;;;;;4967976;28;20046;-81
2022/01/30 16:45:26;;;;;;;13.45;2.40;;;;;;;;;;4985530;28;20139;-80
2022/01/30 16:48:02;;;;;;;25.73;2.63;;;;;;;;;;4981604;28;20076;-84
2022/01/30 16:50:33;;;;;;;12.65;2.40;;;;;;;;;;4972828;28;20054;-82
2022/01/30 16:53:03;;;;;;;17.45;2.67;;;;;;;;;;4991347;28;20046;-82
2022/01/30 16:55:34;;;;;;;15.52;2.67;;;;;;;;;;4985626;28;20116;-83
2022/01/30 16:58:02;;;;;;;13.73;2.00;;;;;;;;;;4985503;28;20050;-84
2022/01/30 17:00:29;;;;;;;11.52;2.28;;;;;;;;;;4988349;28;20046;-84
2022/01/30 17:02:58;;;;;;;16.75;2.30;;;;;;;;;;4983966;28;20045;-84
2022/01/30 17:05:26;;;;;;;15.23;2.75;;;;;;;;;;4949577;28;20050;-84
2022/01/30 17:07:53;;;;;;;10.35;1.95;;;;;;;;;;4984607;28;20141;-86
2022/01/30 17:10:24;;;;;;;13.65;1.95;;;;;;;;;;4981886;28;20065;-84
2022/01/30 17:15:28;;;;;;;15.00;2.72;;;;;;;;;;4986193;28;20090;-85
2022/01/30 17:17:56;;;;;;;20.13;3.00;;;;;;;;;;4982928;28;20065;-84
2022/01/30 17:20:24;;;;;;;16.25;1.92;;;;;;;;;;4964929;28;20066;-86
2022/01/30 17:23:13;;;;;;;13.23;2.15;;;;;;;;;;4964446;28;20111;-84
2022/01/30 17:25:42;;;;;;;12.02;2.35;;;;;;;;;;4981759;28;20065;-85
2022/01/30 17:28:10;;;;;;;21.33;3.35;;;;;;;;;;4983891;28;20113;-86
2022/01/30 17:30:37;;;;;;;19.05;2.03;;;;;;;;;;4969491;28;20045;-84
2022/01/30 17:33:06;;;;;;;17.35;2.42;;;;;;;;;;4989406;28;20219;-83
2022/01/30 17:35:34;;;;;;;17.50;2.38;;;;;;;;;;4969339;28;20142;-84
2022/01/30 17:38:04;;;;;;;14.88;2.38;;;;;;;;;;4980822;28;20079;-85
2022/01/30 17:40:31;;;;;;;17.42;2.40;;;;;;;;;;4990459;28;20047;-83
2022/01/30 17:42:59;;;;;;;21.27;2.83;;;;;;;;;;4972117;28;20042;-84
2022/01/30 17:45:28;;;;;;;15.35;3.25;;;;;;;;;;4966195;28;20099;-84
2022/01/30 17:47:59;;;;;;;18.83;2.63;;;;;;;;;;4985875;28;20137;-86
2022/01/30 17:50:28;;;;;;;25.48;3.08;;;;;;;;;;4974206;28;20139;-82
2022/01/30 17:52:57;;;;;;;23.42;3.05;;;;;;;;;;4987030;28;20084;-84
2022/01/30 17:55:24;;;;;;;25.05;2.70;;;;;;;;;;4971073;28;20132;-84
2022/01/30 17:57:53;;;;;;;21.88;2.72;;;;;;;;;;4971068;28;20054;-82
2022/01/30 18:00:23;;;;;;;17.95;2.80;;;;;;;;;;4992529;28;20053;-83
2022/01/30 18:02:52;;;;;;;12.82;2.65;;;;;;;;;;4952955;28;20093;-81
2022/01/30 18:05:22;;;;;;;20.23;3.25;;;;;;;;;;4982760;28;20137;-85
2022/01/30 18:07:50;;;;;;;18.20;2.65;;;;;;;;;;4991995;28;20042;-83
2022/01/30 18:10:18;;;;;;;16.02;2.30;;;;;;;;;;4968067;28;20097;-84
2022/01/30 18:12:46;;;;;;;20.27;2.65;;;;;;;;;;4986990;28;20431;-84
2022/01/30 18:15:14;;;;;;;13.85;2.50;;;;;;;;;;4970451;28;20050;-84
2022/01/30 18:17:43;;;;;;;13.90;2.97;;;;;;;;;;4985324;28;20174;-82
2022/01/30 18:20:13;;;;;;;17.98;2.88;;;;;;;;;;4956571;28;20050;-82
2022/01/30 18:22:42;;;;;;;19.38;2.33;;;;;;;;;;4972111;28;20050;-82
2022/01/30 18:25:16;;;;;;;13.73;2.38;;;;;;;;;;4993474;28;20342;-82
2022/01/30 18:27:46;;;;;;;17.35;3.03;;;;;;;;;;4989008;28;20512;-82
2022/01/30 18:30:13;;;;;;;11.25;2.28;;;;;;;;;;4989198;28;20062;-82
2022/01/30 18:32:41;;;;;;;8.85;1.92;;;;;;;;;;4996388;28;20171;-82
2022/01/30 18:35:10;;;;;;;18.75;2.75;;;;;;;;;;4992026;28;20179;-82
2022/01/30 18:37:47;;;;;;;13.15;1.77;;;;;;;;;;4972397;28;20113;-84
2022/01/30 18:42:51;;;;;;;18.08;2.55;;;;;;;;;;4999115;28;20174;-83
2022/01/30 18:45:18;;;;;;;10.77;2.03;;;;;;;;;;4997815;28;20054;-82
2022/01/30 18:47:45;;;;;;;13.45;2.63;;;;;;;;;;5001850;28;20338;-84
2022/01/30 18:50:13;;;;;;;15.05;2.67;;;;;;;;;;4995466;28;20123;-82
2022/01/30 18:52:42;;;;;;;17.88;2.10;;;;;;;;;;4966257;28;20057;-84
2022/01/30 18:55:10;;;;;;;14.90;2.25;;;;;;;;;;4967474;28;20847;-84
2022/01/30 18:57:37;;;;;;;19.85;2.15;;;;;;;;;;4986938;28;20046;-84
2022/01/30 19:00:06;;;;;;;25.98;2.53;;;;;;;;;;4992113;28;20061;-86
2022/01/30 19:02:34;;;;;;;13.68;2.20;;;;;;;;;;4986103;28;20602;-85
2022/01/30 19:05:02;;;;;;;16.27;3.08;;;;;;;;;;4984528;28;20054;-85
2022/01/30 19:07:29;;;;;;;14.25;2.63;;;;;;;;;;4987780;28;20058;-88
2022/01/30 19:09:58;;;;;;;16.63;1.92;;;;;;;;;;4978061;28;20049;-87
2022/01/30 19:12:28;;;;;;;21.67;2.97;;;;;;;;;;4989180;28;20452;-88
2022/01/30 19:14:57;;;;;;;16.95;2.55;;;;;;;;;;4968791;28;20051;-86
2022/01/30 19:17:24;;;;;;;12.95;2.80;;;;;;;;;;4987754;28;20081;-87
2022/01/30 19:19:52;;;;;;;19.92;3.33;;;;;;;;;;4972068;28;20054;-87
2022/01/30 19:22:19;;;;;;;19.10;3.55;;;;;;;;;;5006573;28;20038;-87
2022/01/30 19:24:48;;;;;;;20.20;2.80;;;;;;;;;;5008394;28;20038;-89
2022/01/30 19:27:16;;;;;;;25.83;3.15;;;;;;;;;;4977411;28;20043;-89
2022/01/30 19:29:44;;;;;;;17.75;2.30;;;;;;;;;;4986750;28;20050;-88
2022/01/30 19:32:11;;;;;;;17.98;2.45;;;;;;;;;;4988419;28;20050;-88
2022/01/30 19:34:40;;;;;;;17.48;2.90;;;;;;;;;;4986738;28;20121;-88
2022/01/30 19:37:08;;;;;;;27.08;3.80;;;;;;;;;;4989436;28;20057;-88
2022/01/30 19:39:36;;;;;;;22.20;3.28;;;;;;;;;;4986351;28;20050;-89
2022/01/30 19:42:05;;;;;;;37.38;4.28;;;;;;;;;;4987603;28;20482;-88
2022/01/30 19:44:32;;;;;;;22.38;3.13;;;;;;;;;;4968842;28;20042;-88
2022/01/30 19:47:00;;;;;;;21.08;2.67;;;;;;;;;;4993239;28;20534;-89
2022/01/30 19:49:28;;;;;;;19.52;2.55;;;;;;;;;;4965975;28;20062;-88
2022/01/30 19:51:55;;;;;;;21.13;3.38;;;;;;;;;;4983690;28;20061;-88
2022/01/30 19:54:24;;;;;;;17.33;2.70;;;;;;;;;;4966726;28;20242;-88
2022/01/30 19:56:54;;;;;;;17.88;2.25;;;;;;;;;;4963507;28;20046;-88
2022/01/30 19:59:22;;;;;;;13.77;2.38;;;;;;;;;;4985740;28;20069;-87
2022/01/30 20:01:50;;;;;;;24.08;2.90;;;;;;;;;;4993453;28;20683;-87
2022/01/30 20:04:18;;;;;;;17.20;2.53;;;;;;;;;;4989184;28;20041;-88
2022/01/30 20:06:45;;;;;;;18.92;2.92;;;;;;;;;;4961374;28;20113;-87
2022/01/30 20:09:13;;;;;;;25.38;3.25;;;;;;;;;;4984676;28;20120;-88
2022/01/30 20:11:41;;;;;;;24.90;2.67;;;;;;;;;;4968655;28;20058;-88
2022/01/30 20:14:09;;;;;;;19.70;3.17;;;;;;;;;;4986513;28;20039;-88
2022/01/30 20:16:38;;;;;;;22.88;2.97;;;;;;;;;;4963524;28;20109;-87
2022/01/30 20:19:06;;;;;;;21.95;3.22;;;;;;;;;;4983807;28;20650;-88
2022/01/30 20:21:33;;;;;;;28.70;3.38;;;;;;;;;;4969905;28;20081;-88
2022/01/30 20:24:02;;;;;;;23.42;2.85;;;;;;;;;;4963750;28;20062;-89
2022/01/30 20:26:30;;;;;;;14.98;3.00;;;;;;;;;;4969691;28;20045;-89
2022/01/30 20:28:57;;;;;;;18.52;2.72;;;;;;;;;;4968732;28;20050;-88
2022/01/30 20:31:26;;;;;;;29.42;3.65;;;;;;;;;;4989016;28;20054;-88
2022/01/30 20:33:56;;;;;;;20.33;3.50;;;;;;;;;;4987751;28;20056;-88
2022/01/30 20:36:26;;;;;;;21.98;2.65;;;;;;;;;;4986584;28;20046;-88
2022/01/30 20:38:55;;;;;;;12.88;2.42;;;;;;;;;;4986100;28;20042;-88
2022/01/30 20:41:21;;;;;;;17.40;3.50;;;;;;;;;;4987414;28;20058;-89
2022/01/30 20:43:49;;;;;;;10.70;2.25;;;;;;;;;;4968166;28;20972;-89
2022/01/30 20:46:18;;;;;;;17.20;2.80;;;;;;;;;;4988462;28;20054;-89
2022/01/30 20:48:47;;;;;;;23.40;3.53;;;;;;;;;;4988991;28;20047;-89
2022/01/30 20:51:14;;;;;;;14.52;2.25;;;;;;;;;;4944634;28;20125;-89
2022/01/30 20:53:42;;;;;;;16.23;2.70;;;;;;;;;;4970322;28;20050;-89
2022/01/30 20:56:10;;;;;;;19.05;2.25;;;;;;;;;;4989668;28;20142;-89
2022/01/30 20:58:40;;;;;;;17.75;2.17;;;;;;;;;;4958824;28;20058;-88
2022/01/30 21:01:09;;;;;;;14.13;1.83;;;;;;;;;;4969966;28;20047;-89
2022/01/30 21:03:38;;;;;;;26.88;2.53;;;;;;;;;;4983884;28;20158;-89
2022/01/30 21:06:06;;;;;;;19.23;2.67;;;;;;;;;;4990840;28;20046;-89
2022/01/30 21:08:36;;;;;;;18.48;2.20;;;;;;;;;;4987435;28;20388;-88
2022/01/30 21:11:04;;;;;;;16.50;2.55;;;;;;;;;;4992477;28;20046;-88
2022/01/30 21:13:34;;;;;;;12.10;2.72;;;;;;;;;;4991139;28;20129;-88
2022/01/30 21:16:02;;;;;;;17.55;2.33;;;;;;;;;;4976847;28;20507;-88
2022/01/30 21:18:30;;;;;;;17.23;2.47;;;;;;;;;;4992153;28;20061;-88
2022/01/30 21:20:58;;;;;;;24.63;3.10;;;;;;;;;;4968840;28;20054;-88